createdAt,value
2022-10-23T00:00:11.888Z,13.80
2022-10-23T00:02:44.194Z,13.90
2022-10-23T00:07:54.776Z,13.80
2022-10-23T00:10:28.695Z,13.70
2022-10-23T00:13:00.612Z,13.70
2022-10-23T00:15:36.614Z,13.70
2022-10-23T00:18:08.511Z,13.70
2022-10-23T00:20:41.082Z,13.70
2022-10-23T00:23:12.957Z,13.60
2022-10-23T00:25:45.476Z,13.50
2022-10-23T00:28:17.498Z,13.60
2022-10-23T00:30:50.024Z,13.60
2022-10-23T00:33:21.949Z,13.70
2022-10-23T00:35:54.716Z,13.70
2022-10-23T00:38:26.892Z,13.70
2022-10-23T00:40:59.427Z,13.70
2022-10-23T00:43:32.861Z,13.70
2022-10-23T00:46:05.491Z,13.70
2022-10-23T00:51:10.037Z,13.60
2022-10-23T00:53:43.842Z,13.40
2022-10-23T00:56:17.488Z,13.40
2022-10-23T00:58:49.430Z,13.40
2022-10-23T01:01:23.634Z,13.30
2022-10-23T01:03:56.008Z,13.30
2022-10-23T01:06:56.303Z,13.20
2022-10-23T01:09:59.435Z,13.20
2022-10-23T01:13:00.724Z,13.10
2022-10-23T01:15:45.275Z,13.10
2022-10-23T01:19:00.504Z,13.10
2022-10-23T01:22:03.156Z,13.10
2022-10-23T01:24:57.206Z,13.10
2022-10-23T01:27:40.089Z,13.20
2022-10-23T01:30:16.784Z,13.20
2022-10-23T01:33:02.292Z,13.20
2022-10-23T01:35:46.354Z,13.40
2022-10-23T01:38:34.180Z,13.50
2022-10-23T01:41:38.224Z,13.50
2022-10-23T01:44:21.231Z,13.50
2022-10-23T01:46:55.191Z,13.50
2022-10-23T01:49:28.596Z,13.50
2022-10-23T01:52:07.639Z,13.40
2022-10-23T01:54:44.422Z,13.40
2022-10-23T01:57:19.025Z,13.40
2022-10-23T01:59:58.723Z,13.50
2022-10-23T02:02:34.444Z,13.40
2022-10-23T02:05:27.181Z,13.50
2022-10-23T02:08:02.096Z,13.50
2022-10-23T02:11:04.659Z,13.40
2022-10-23T02:14:02.463Z,13.40
2022-10-23T02:16:48.185Z,13.30
2022-10-23T02:19:33.698Z,13.20
2022-10-23T02:22:31.366Z,13.10
2022-10-23T02:25:14.161Z,13.00
2022-10-23T02:27:53.913Z,13.00
2022-10-23T02:30:30.623Z,13.00
2022-10-23T02:33:14.557Z,13.00
2022-10-23T02:35:49.603Z,12.90
2022-10-23T02:38:42.879Z,12.80
2022-10-23T02:41:53.122Z,12.80
2022-10-23T02:44:55.562Z,13.10
2022-10-23T02:47:47.146Z,13.10
2022-10-23T02:50:28.962Z,12.90
2022-10-23T02:53:50.354Z,12.90
2022-10-23T02:57:02.758Z,12.70
2022-10-23T03:02:23.744Z,12.70
2022-10-23T03:04:57.298Z,12.70
2022-10-23T03:10:11.179Z,12.60
2022-10-23T03:12:43.699Z,12.60
2022-10-23T03:15:17.687Z,12.70
2022-10-23T03:17:49.611Z,12.60
2022-10-23T03:20:22.697Z,12.50
2022-10-23T03:22:54.621Z,12.60
2022-10-23T03:25:27.635Z,12.60
2022-10-23T03:28:02.223Z,12.50
2022-10-23T03:30:39.553Z,12.60
2022-10-23T03:33:11.642Z,12.70
2022-10-23T03:38:20.078Z,12.90
2022-10-23T03:40:52.648Z,12.90
2022-10-23T03:43:24.512Z,13.10
2022-10-23T03:45:57.744Z,13.20
2022-10-23T03:48:32.578Z,13.20
2022-10-23T03:51:08.522Z,13.20
2022-10-23T03:53:40.395Z,13.20
2022-10-23T03:56:12.940Z,13.30
2022-10-23T03:58:45.470Z,13.40
2022-10-23T04:01:19.447Z,13.60
2022-10-23T04:09:00.974Z,13.30
2022-10-23T04:11:34.535Z,13.40
2022-10-23T04:14:06.446Z,13.30
2022-10-23T04:16:43.203Z,13.10
2022-10-23T04:19:17.455Z,13.10
2022-10-23T04:21:49.323Z,13.00
2022-10-23T04:24:22.052Z,13.00
2022-10-23T04:26:54.123Z,13.20
2022-10-23T04:32:00.702Z,13.30
2022-10-23T04:37:07.325Z,13.50
2022-10-23T04:39:39.977Z,13.50
2022-10-23T04:42:11.864Z,13.70
2022-10-23T04:44:45.437Z,13.70
2022-10-23T04:50:01.153Z,13.40
2022-10-23T04:52:57.100Z,13.60
2022-10-23T04:55:59.426Z,13.60
2022-10-23T04:58:42.818Z,13.40
2022-10-23T05:01:14.836Z,13.10
2022-10-23T05:03:47.908Z,13.00
2022-10-23T05:06:20.997Z,12.90
2022-10-23T05:09:06.720Z,12.90
2022-10-23T05:14:30.269Z,12.90
2022-10-23T05:17:20.938Z,12.90
2022-10-23T05:19:56.444Z,12.80
2022-10-23T05:22:32.906Z,12.70
2022-10-23T05:25:05.920Z,12.80
2022-10-23T05:27:39.178Z,12.70
2022-10-23T05:30:15.235Z,12.60
2022-10-23T05:32:47.774Z,12.60
2022-10-23T05:35:23.403Z,12.80
2022-10-23T05:37:59.212Z,12.70
2022-10-23T05:43:09.813Z,12.80
2022-10-23T05:46:05.300Z,12.70
2022-10-23T05:49:08.460Z,12.70
2022-10-23T05:57:27.743Z,12.60
2022-10-23T06:00:01.589Z,12.70
2022-10-23T06:02:45.586Z,12.70
2022-10-23T06:08:27.757Z,12.60
2022-10-23T06:11:10.305Z,12.50
2022-10-23T06:13:45.543Z,12.50
2022-10-23T06:16:26.916Z,12.60
2022-10-23T06:21:36.568Z,12.60
2022-10-23T06:24:10.393Z,12.70
2022-10-23T06:26:53.540Z,12.70
2022-10-23T06:29:31.596Z,12.70
2022-10-23T06:32:03.520Z,12.80
2022-10-23T06:34:36.130Z,12.80
2022-10-23T06:37:09.180Z,12.80
2022-10-23T06:39:50.936Z,12.80
2022-10-23T06:42:27.677Z,12.80
2022-10-23T06:45:04.686Z,12.80
2022-10-23T06:47:45.726Z,12.90
2022-10-23T06:50:27.880Z,13.00
2022-10-23T06:53:02.002Z,13.10
2022-10-23T06:55:34.101Z,13.00
2022-10-23T06:58:10.930Z,13.00
2022-10-23T07:01:02.130Z,13.10
2022-10-23T07:03:35.198Z,13.10
2022-10-23T07:06:11.080Z,13.20
2022-10-23T07:08:44.214Z,13.30
2022-10-23T07:14:09.632Z,13.50
2022-10-23T07:16:41.582Z,13.70
2022-10-23T07:21:57.093Z,13.90
2022-10-23T07:24:52.991Z,14.00
2022-10-23T07:27:30.415Z,14.00
2022-10-23T07:30:07.233Z,14.10
2022-10-23T07:32:47.377Z,14.20
2022-10-23T07:35:19.353Z,14.10
2022-10-23T07:38:09.067Z,14.00
2022-10-23T07:40:45.955Z,14.00
2022-10-23T07:48:40.511Z,14.20
2022-10-23T07:51:15.819Z,14.20
2022-10-23T07:53:55.053Z,14.40
2022-10-23T07:56:52.947Z,14.40
2022-10-23T08:02:00.991Z,14.40
2022-10-23T08:07:20.623Z,14.40
2022-10-23T08:09:54.393Z,14.50
2022-10-23T08:12:27.345Z,14.60
2022-10-23T08:15:00.228Z,14.80
2022-10-23T08:17:41.290Z,15.40
2022-10-23T08:22:53.693Z,18.40
2022-10-23T08:25:29.115Z,19.40
2022-10-23T08:28:04.275Z,20.00
2022-10-23T08:33:16.817Z,20.90
2022-10-23T08:35:49.912Z,20.70
2022-10-23T08:38:30.165Z,20.60
2022-10-23T08:41:02.867Z,20.80
2022-10-23T08:44:33.331Z,21.40
2022-10-23T08:47:15.662Z,21.20
2022-10-23T08:50:44.336Z,20.80
2022-10-23T08:53:41.951Z,20.00
2022-10-23T08:56:21.043Z,19.50
2022-10-23T08:59:05.710Z,19.50
2022-10-23T09:01:44.438Z,19.40
2022-10-23T09:04:17.041Z,19.30
2022-10-23T09:07:17.366Z,19.30
2022-10-23T09:10:26.201Z,19.30
2022-10-23T09:13:43.220Z,19.20
2022-10-23T09:16:41.546Z,19.00
2022-10-23T09:19:27.564Z,18.90
2022-10-23T09:22:00.361Z,18.90
2022-10-23T09:24:33.619Z,19.00
2022-10-23T09:27:06.185Z,19.00
2022-10-23T09:29:47.533Z,19.20
2022-10-23T09:32:33.264Z,19.40
2022-10-23T09:35:06.559Z,19.40
2022-10-23T09:37:48.757Z,19.50
2022-10-23T09:40:40.157Z,19.80
2022-10-23T09:43:19.128Z,19.70
2022-10-23T09:46:04.975Z,19.70
2022-10-23T09:48:42.590Z,19.50
2022-10-23T09:51:21.613Z,19.40
2022-10-23T09:53:57.384Z,19.70
2022-10-23T09:56:40.633Z,19.80
2022-10-23T09:59:13.101Z,20.10
2022-10-23T10:02:01.820Z,19.90
2022-10-23T10:04:52.201Z,19.90
2022-10-23T10:07:33.377Z,19.90
2022-10-23T10:10:15.041Z,19.70
2022-10-23T10:12:59.377Z,19.60
2022-10-23T10:15:52.169Z,19.50
2022-10-23T10:18:43.801Z,19.50
2022-10-23T10:21:29.077Z,19.90
2022-10-23T10:25:11.729Z,20.00
2022-10-23T10:28:18.217Z,20.50
2022-10-23T10:31:13.459Z,20.50
2022-10-23T10:34:26.860Z,20.50
2022-10-23T10:37:17.271Z,20.30
2022-10-23T10:40:22.800Z,20.30
2022-10-23T10:43:19.812Z,20.40
2022-10-23T10:46:03.685Z,20.60
2022-10-23T10:48:49.953Z,20.70
2022-10-23T10:54:55.996Z,20.80
2022-10-23T10:57:56.815Z,20.80
2022-10-23T11:00:34.438Z,21.00
2022-10-23T11:03:39.975Z,21.10
2022-10-23T11:06:18.623Z,21.40
2022-10-23T11:08:58.162Z,21.50
2022-10-23T11:14:26.188Z,21.90
2022-10-23T11:17:17.082Z,22.10
2022-10-23T11:20:01.138Z,22.10
2022-10-23T11:22:43.557Z,21.80
2022-10-23T11:26:08.566Z,21.60
2022-10-23T11:28:58.849Z,21.60
2022-10-23T11:31:46.296Z,21.50
2022-10-23T11:34:59.879Z,21.40
2022-10-23T11:37:32.242Z,21.40
2022-10-23T11:40:23.254Z,21.60
2022-10-23T11:42:55.403Z,21.70
2022-10-23T11:45:28.932Z,22.00
2022-10-23T11:48:15.465Z,22.10
2022-10-23T11:50:47.354Z,22.30
2022-10-23T11:53:31.705Z,22.40
2022-10-23T11:56:27.129Z,22.40
2022-10-23T11:59:32.073Z,22.70
2022-10-23T12:02:33.621Z,22.80
2022-10-23T12:05:38.042Z,23.00
2022-10-23T12:08:23.476Z,23.10
2022-10-23T12:10:56.088Z,23.20
2022-10-23T12:13:37.324Z,23.10
2022-10-23T12:16:09.884Z,22.90
2022-10-23T12:18:54.000Z,23.00
2022-10-23T12:21:35.582Z,23.10
2022-10-23T12:25:04.243Z,23.10
2022-10-23T12:27:52.555Z,23.30
2022-10-23T12:33:55.164Z,22.90
2022-10-23T12:36:52.151Z,22.90
2022-10-23T12:39:33.627Z,23.20
2022-10-23T12:42:17.923Z,23.20
2022-10-23T12:45:03.247Z,22.80
2022-10-23T12:47:35.676Z,22.60
2022-10-23T12:50:27.904Z,22.20
2022-10-23T12:53:07.841Z,22.10
2022-10-23T12:55:54.652Z,22.20
2022-10-23T12:58:32.232Z,22.40
2022-10-23T13:01:07.795Z,22.50
2022-10-23T13:03:40.311Z,22.60
2022-10-23T13:06:12.540Z,22.60
2022-10-23T13:08:47.786Z,22.60
2022-10-23T13:11:44.850Z,22.50
2022-10-23T13:14:43.768Z,22.60
2022-10-23T13:17:18.052Z,22.70
2022-10-23T13:19:49.906Z,22.70
2022-10-23T13:22:23.022Z,22.80
2022-10-23T13:24:54.926Z,22.70
2022-10-23T13:27:47.303Z,22.70
2022-10-23T13:30:33.568Z,22.50
2022-10-23T13:33:25.958Z,22.50
2022-10-23T13:36:03.774Z,22.50
2022-10-23T13:39:09.518Z,22.70
2022-10-23T13:41:45.298Z,22.90
2022-10-23T13:44:21.349Z,22.90
2022-10-23T13:46:53.953Z,22.80
2022-10-23T13:49:25.886Z,22.80
2022-10-23T13:51:58.493Z,23.00
2022-10-23T13:54:30.694Z,23.10
2022-10-23T13:57:02.935Z,23.00
2022-10-23T13:59:34.810Z,23.00
2022-10-23T14:02:25.710Z,22.90
2022-10-23T14:04:57.778Z,22.70
2022-10-23T14:10:02.576Z,23.00
2022-10-23T14:12:45.254Z,23.10
2022-10-23T14:15:17.567Z,23.20
2022-10-23T14:17:50.198Z,23.30
2022-10-23T14:23:00.327Z,23.30
2022-10-23T14:28:05.229Z,23.10
2022-10-23T14:30:37.791Z,22.90
2022-10-23T14:38:15.883Z,22.90
2022-10-23T14:43:20.999Z,22.80
2022-10-23T14:48:27.411Z,22.70
2022-10-23T14:50:59.304Z,22.70
2022-10-23T14:53:31.848Z,22.70
2022-10-23T14:56:04.818Z,22.70
2022-10-23T14:58:37.056Z,22.70
2022-10-23T15:01:10.515Z,22.60
2022-10-23T15:08:55.861Z,22.50
2022-10-23T15:11:28.172Z,22.40
2022-10-23T15:14:01.382Z,22.40
2022-10-23T15:19:18.422Z,22.20
2022-10-23T15:21:52.574Z,22.00
2022-10-23T15:24:25.056Z,21.80
2022-10-23T15:26:57.488Z,21.90
2022-10-23T15:29:29.399Z,21.90
2022-10-23T15:32:02.429Z,21.80
2022-10-23T15:37:07.686Z,21.70
2022-10-23T15:39:39.629Z,21.60
2022-10-23T15:42:12.762Z,21.50
2022-10-23T15:44:45.262Z,21.40
2022-10-23T15:47:17.862Z,21.40
2022-10-23T15:49:49.761Z,21.40
2022-10-23T15:52:22.289Z,21.30
2022-10-23T15:59:59.590Z,21.40
2022-10-23T16:02:32.281Z,21.30
2022-10-23T16:05:05.222Z,21.20
2022-10-23T16:10:10.141Z,21.20
2022-10-23T16:17:49.195Z,21.30
2022-10-23T16:20:21.129Z,21.40
2022-10-23T16:22:53.644Z,21.30
2022-10-23T16:25:25.586Z,21.30
2022-10-23T16:27:59.761Z,21.20
2022-10-23T16:35:37.831Z,21.00
2022-10-23T16:40:52.750Z,20.90
2022-10-23T16:43:45.676Z,20.80
2022-10-23T16:46:44.084Z,20.70
2022-10-23T16:51:48.995Z,20.70
2022-10-23T16:54:20.886Z,20.60
2022-10-23T16:56:53.386Z,20.70
2022-10-23T16:59:25.400Z,21.10
2022-10-23T17:01:58.120Z,21.10
2022-10-23T17:04:30.091Z,20.80
2022-10-23T17:12:08.521Z,20.60
2022-10-23T17:14:40.495Z,20.50
2022-10-23T17:17:13.884Z,20.40
2022-10-23T17:19:46.621Z,20.30
2022-10-23T17:22:19.334Z,20.20
2022-10-23T17:27:26.584Z,21.50
2022-10-23T17:29:58.487Z,21.70
2022-10-23T17:32:31.185Z,22.00
2022-10-23T17:35:06.957Z,22.70
2022-10-23T17:40:12.236Z,23.80
2022-10-23T17:42:45.037Z,24.10
2022-10-23T17:45:17.138Z,24.00
2022-10-23T17:47:49.642Z,24.10
2022-10-23T17:55:26.749Z,24.10
2022-10-23T17:57:59.727Z,24.00
2022-10-23T18:03:05.148Z,24.20
2022-10-23T18:05:37.102Z,24.10
2022-10-23T18:10:42.061Z,24.20
2022-10-23T18:13:14.720Z,24.20
2022-10-23T18:18:19.618Z,24.10
2022-10-23T18:20:51.517Z,24.00
2022-10-23T18:23:24.045Z,23.90
2022-10-23T18:25:57.888Z,24.10
2022-10-23T18:28:30.650Z,23.90
2022-10-23T18:31:03.157Z,23.80
2022-10-23T18:33:35.073Z,23.70
2022-10-23T18:36:17.182Z,23.80
2022-10-23T18:38:50.119Z,23.70
2022-10-23T18:41:24.082Z,23.70
2022-10-23T18:46:28.986Z,23.60
2022-10-23T18:49:01.234Z,23.50
2022-10-23T18:51:36.280Z,23.60
2022-10-23T18:54:13.664Z,23.50
2022-10-23T18:56:46.237Z,23.60
2022-10-23T18:59:20.393Z,23.60
2022-10-23T19:01:53.308Z,23.70
2022-10-23T19:04:25.322Z,23.70
2022-10-23T19:06:57.834Z,23.60
2022-10-23T19:09:29.677Z,23.60
2022-10-23T19:14:36.461Z,23.70
2022-10-23T19:17:14.880Z,23.60
2022-10-23T19:20:00.083Z,23.60
2022-10-23T19:22:36.636Z,23.50
2022-10-23T19:25:17.317Z,23.60
2022-10-23T19:27:49.961Z,23.60
2022-10-23T19:30:22.915Z,23.60
2022-10-23T19:32:55.539Z,23.70
2022-10-23T19:35:27.681Z,23.70
2022-10-23T19:38:00.247Z,23.80
2022-10-23T19:40:32.229Z,23.70
2022-10-23T19:43:04.791Z,23.60
2022-10-23T19:45:37.480Z,23.70
2022-10-23T19:48:10.119Z,23.80
2022-10-23T19:50:43.136Z,24.10
2022-10-23T19:53:17.127Z,24.10
2022-10-23T19:55:49.120Z,23.90
2022-10-23T19:58:21.665Z,23.90
2022-10-23T20:00:53.509Z,23.90
2022-10-23T20:03:26.040Z,23.90
2022-10-23T20:05:58.016Z,23.90
2022-10-23T20:08:32.796Z,23.90
2022-10-23T20:11:08.909Z,23.80
2022-10-23T20:13:41.457Z,23.90
2022-10-23T20:16:37.553Z,24.00
2022-10-23T20:19:14.874Z,23.80
2022-10-23T20:21:48.993Z,23.80
2022-10-23T20:24:21.736Z,23.80
2022-10-23T20:26:55.790Z,23.80
2022-10-23T20:29:27.741Z,23.70
2022-10-23T20:32:00.252Z,23.70
2022-10-23T20:34:32.406Z,23.50
2022-10-23T20:37:04.814Z,23.60
2022-10-23T20:39:38.033Z,23.70
2022-10-23T20:42:10.527Z,23.50
2022-10-23T20:44:42.433Z,23.50
2022-10-23T20:47:14.956Z,23.40
2022-10-23T20:49:47.764Z,23.40
2022-10-23T20:52:22.394Z,23.40
2022-10-23T20:54:55.740Z,23.30
2022-10-23T20:57:29.743Z,23.40
2022-10-23T21:00:05.347Z,23.40
2022-10-23T21:02:38.505Z,23.50
2022-10-23T21:05:10.445Z,23.40
2022-10-23T21:07:42.963Z,23.30
2022-10-23T21:10:14.811Z,23.50
2022-10-23T21:15:19.959Z,23.30
2022-10-23T21:17:52.686Z,23.20
2022-10-23T21:20:24.592Z,23.00
2022-10-23T21:22:57.805Z,23.10
2022-10-23T21:25:30.002Z,23.10
2022-10-23T21:28:01.876Z,23.10
2022-10-23T21:30:37.284Z,23.20
2022-10-23T21:33:09.209Z,23.10
2022-10-23T21:35:52.226Z,23.10
2022-10-23T21:38:31.327Z,23.00
2022-10-23T21:41:16.376Z,23.00
2022-10-23T21:43:52.823Z,23.00
2022-10-23T21:46:26.574Z,23.00
2022-10-23T21:49:00.878Z,23.00
2022-10-23T21:51:37.201Z,23.20
2022-10-23T21:54:15.339Z,23.30
2022-10-23T21:56:50.629Z,23.10
2022-10-23T21:59:29.105Z,23.30
2022-10-23T22:02:04.898Z,23.40
2022-10-23T22:04:38.634Z,23.30
2022-10-23T22:07:14.799Z,23.20
2022-10-23T22:09:48.035Z,23.20
2022-10-23T22:12:20.306Z,23.10
2022-10-23T22:17:25.814Z,23.00
2022-10-23T22:19:57.698Z,23.20
2022-10-23T22:22:30.440Z,23.10
2022-10-23T22:27:37.777Z,23.10
2022-10-23T22:30:10.310Z,23.10
2022-10-23T22:32:43.259Z,23.20
2022-10-23T22:35:15.425Z,23.00
2022-10-23T22:37:48.208Z,22.90
2022-10-23T22:40:20.499Z,22.70
2022-10-23T22:42:52.545Z,22.90
2022-10-23T22:45:44.400Z,23.00
2022-10-23T22:50:49.248Z,22.90
2022-10-23T22:53:21.126Z,22.90
2022-10-23T22:55:55.459Z,23.10
2022-10-23T22:58:27.492Z,23.00
2022-10-23T23:01:08.216Z,22.80
2022-10-23T23:03:40.368Z,22.70
2022-10-23T23:06:13.478Z,22.90
2022-10-23T23:08:46.770Z,22.70
2022-10-23T23:11:22.509Z,22.60
2022-10-23T23:16:31.990Z,22.60
2022-10-23T23:19:04.989Z,22.70
2022-10-23T23:21:37.622Z,22.60
2022-10-23T23:24:11.615Z,22.60
2022-10-23T23:26:43.828Z,22.70
2022-10-23T23:29:15.728Z,22.70
2022-10-23T23:31:48.352Z,22.60
2022-10-23T23:34:21.372Z,22.70
2022-10-23T23:36:53.273Z,22.50
2022-10-23T23:39:26.613Z,22.60
2022-10-23T23:41:58.508Z,22.40
2022-10-23T23:44:31.160Z,22.40
2022-10-23T23:52:08.316Z,22.70
2022-10-23T23:54:40.546Z,22.60
2022-10-23T23:57:12.918Z,22.50
2022-10-23T23:59:45.413Z,22.60
